Share

Groom, TX (79039)

WT_Meso Clarendon 2W (MCEST2) Elev 2835 ft | 34.92 °N, 100.93 °W | Change Station
Active Advisory: Special Statement

Current weather conditions updated 40 minutes ago

Fog
Fog
56 °F
Feels Like 56 °F
N
7
Wind Variable Wind from West
Gusts 10.0 mph
Sunrise 7:04 AM
Sunset 8:22 PM
Moon Waning Gibbous

Today is forecast to be Warmer than yesterday.

Pressure 30.01 in
Visibility 0.2 miles
Clouds Overcast 200 ft
Dew Point 54 °F
Humidity 95%
Rainfall -999.00 in
Snow Depth Not available.
UV 0 out of 16
Pollen 9.00 out of 12
Air Quality Not available.
Flu Activity Local Activity
METAR KPPA 211115Z AUTO 30005KT 1/4SM FG OVC002 11/11 A3001 RMK AO2 T01120106

More Conditions Fewer Conditions

Pressure 30.01 in
Visibility 0.2 miles
Clouds Overcast 200 ft
Dew Point 54 °F
Humidity 95%
Rainfall -999.00 in
Snow Depth Not available.
UV 0 out of 16
Pollen 9.00 out of 12
Air Quality Not available.
Flu Activity Local Activity
METAR KPPA 211115Z AUTO 30005KT 1/4SM FG OVC002 11/11 A3001 RMK AO2 T01120106

More Conditions Fewer Conditions

10-Day Weather Forecast

Almanac

Astronomy

Apr. 21, 2014 Rise Set
Actual Time 7:04 AM CDT 8:22 PM CDT
Civil Twilight 6:38 AM CDT 8:48 PM CDT
Nautical Twilight 6:06 AM CDT 9:20 PM CDT
Astronomical Twilight 5:33 AM CDT 9:53 PM CDT
Moon 1:50 AM CDT 12:36 PM CDT
Length of Visible Light 14h 10m
Length of Day
13h 17m
Tomorrow will be 2m 2s longer.
Waning Gibbous, 60% of the Moon is Illuminated
Today
Waning Gibbous
Apr 22
Last Quarter
Apr 29
New
May 6
First Quarter
May 14
Full

Today's Extremes

State Highs State Lows

Community

  • Snowy Robin
    Snowy Robin
  • Sun Pillar and Geese
    Sun Pillar and Geese
  • Showers on the Way
    Showers on the Way
  • Easter Morning Fog
    Easter Morning Fog
  • Easter Dance
    Easter Dance

WunderPhotos

Upload Photos

1,703,593 photos uploaded!

Nearby

Snow Depth

Station Depth Elevation
No new snow has been reported.

Coastal Water Temperatures

Place Temperature
No Stations Reporting

Earthquake Activity

City Distance Mag. Time & Date
No recent earthquake activity has been reported nearby.
Minimum magnitude displayed is 2.5.

Nearby Weather Stations

Station Location Temp. Dew Point Humidity Wind Precip. Elev Updated Type
WT_Meso Clarendon 2W, Clarendon, TX 56 °F 54 °F 95% West  at  7 mph 0.00 in / hr 2835 ft 5:55 AM CDT MADIS
HADS LEFORS WEATHER STATION TX, Lefors, TX 57 °F 51 °F 82% West  at  3 mph 0.00 in / hr 2798 ft 6:00 AM CDT MADIS

Show More Stations Show Fewer Stations

What do you think?

We're not finished. Please let us know what you like, what you don't like, and what you are still missing.